createdAt,value
2018-03-02T00:02:32.412Z,-4.80
2018-03-02T00:05:04.840Z,-5.00
2018-03-02T00:07:32.527Z,-5.00
2018-03-02T00:10:03.463Z,-5.00
2018-03-02T00:15:33.866Z,-4.90
2018-03-02T00:18:04.573Z,-5.00
2018-03-02T00:20:34.058Z,-5.00
2018-03-02T00:23:26.590Z,-5.00
2018-03-02T00:26:00.017Z,-4.90
2018-03-02T00:28:36.770Z,-4.80
2018-03-02T00:31:04.908Z,-4.80
2018-03-02T00:33:38.657Z,-4.80
2018-03-02T00:36:24.267Z,-4.80
2018-03-02T00:39:00.764Z,-4.80
2018-03-02T00:41:34.510Z,-4.80
2018-03-02T00:44:03.297Z,-4.90
2018-03-02T00:46:37.133Z,-5.00
2018-03-02T00:49:29.658Z,-5.00
2018-03-02T00:52:12.191Z,-5.00
2018-03-02T00:54:39.695Z,-5.00
2018-03-02T00:57:09.810Z,-4.90
2018-03-02T00:59:40.102Z,-5.10
2018-03-02T01:02:12.351Z,-5.00
2018-03-02T01:04:39.876Z,-5.10
2018-03-02T01:07:12.428Z,-5.10
2018-03-02T01:09:39.990Z,-5.10
2018-03-02T01:12:10.579Z,-5.10
2018-03-02T01:14:38.116Z,-5.10
2018-03-02T01:17:06.538Z,-5.30
2018-03-02T01:19:38.275Z,-5.30
2018-03-02T01:22:06.569Z,-5.30
2018-03-02T01:24:36.761Z,-5.40
2018-03-02T01:27:05.554Z,-5.40
2018-03-02T01:29:35.273Z,-5.40
2018-03-02T01:32:05.566Z,-5.40
2018-03-02T01:34:37.717Z,-5.50
2018-03-02T01:37:06.948Z,-5.40
2018-03-02T01:39:35.465Z,-5.40
2018-03-02T01:42:11.037Z,-5.50
2018-03-02T01:44:38.626Z,-5.40
2018-03-02T01:47:13.541Z,-5.50
2018-03-02T01:49:41.251Z,-5.50
2018-03-02T01:52:13.554Z,-5.60
2018-03-02T01:54:41.887Z,-5.50
2018-03-02T01:57:13.097Z,-5.50
2018-03-02T01:59:40.597Z,-5.50
2018-03-02T02:02:14.136Z,-5.50
2018-03-02T02:04:41.657Z,-5.50
2018-03-02T02:07:13.432Z,-5.50
2018-03-02T02:09:41.887Z,-5.50
2018-03-02T02:12:14.744Z,-5.50
2018-03-02T02:14:42.236Z,-5.50
2018-03-02T02:17:12.145Z,-5.50
2018-03-02T02:19:39.780Z,-5.50
2018-03-02T02:22:07.385Z,-5.50
2018-03-02T02:24:35.933Z,-5.60
2018-03-02T02:27:07.748Z,-5.60
2018-03-02T02:29:41.082Z,-5.60
2018-03-02T02:32:09.461Z,-5.60
2018-03-02T02:34:36.952Z,-5.60
2018-03-02T02:37:07.994Z,-5.70
2018-03-02T02:39:38.673Z,-5.70
2018-03-02T02:42:12.467Z,-5.60
2018-03-02T02:44:40.151Z,-5.70
2018-03-02T02:47:09.702Z,-5.70
2018-03-02T02:49:38.356Z,-5.60
2018-03-02T02:52:10.341Z,-5.60
2018-03-02T02:54:50.808Z,-5.60
2018-03-02T02:57:21.606Z,-5.60
2018-03-02T03:00:04.251Z,-5.70
2018-03-02T03:08:14.817Z,-5.70
2018-03-02T03:13:29.484Z,-5.70
2018-03-02T03:16:06.727Z,-5.60
2018-03-02T03:18:35.684Z,-5.60
2018-03-02T03:21:08.865Z,-5.80
2018-03-02T03:23:42.565Z,-5.70
2018-03-02T03:26:12.867Z,-5.70
2018-03-02T03:28:54.922Z,-5.70
2018-03-02T03:31:30.321Z,-5.70
2018-03-02T03:34:06.473Z,-5.60
2018-03-02T03:36:35.638Z,-5.60
2018-03-02T03:39:11.446Z,-5.60
2018-03-02T03:41:39.110Z,-5.60
2018-03-02T03:44:20.230Z,-5.70
2018-03-02T03:46:55.573Z,-5.70
2018-03-02T03:49:32.243Z,-5.70
2018-03-02T03:52:07.158Z,-5.70
2018-03-02T03:54:47.278Z,-5.70
2018-03-02T03:57:18.460Z,-5.80
2018-03-02T03:59:46.003Z,-5.80
2018-03-02T04:02:16.205Z,-5.80
2018-03-02T04:04:44.588Z,-5.80
2018-03-02T04:07:14.362Z,-5.80
2018-03-02T04:09:41.945Z,-5.80
2018-03-02T04:12:15.369Z,-5.80
2018-03-02T04:14:42.990Z,-5.90
2018-03-02T04:17:13.910Z,-5.90
2018-03-02T04:19:41.520Z,-6.00
2018-03-02T04:22:09.854Z,-6.00
2018-03-02T04:24:40.745Z,-6.00
2018-03-02T04:27:09.170Z,-5.90
2018-03-02T04:32:17.062Z,-5.90
2018-03-02T04:34:44.635Z,-5.90
2018-03-02T04:37:29.340Z,-6.00
2018-03-02T04:45:32.197Z,-6.10
2018-03-02T04:48:08.993Z,-6.10
2018-03-02T04:53:18.225Z,-6.10
2018-03-02T05:01:17.920Z,-6.00
2018-03-02T05:03:46.233Z,-6.10
2018-03-02T05:06:17.904Z,-6.10
2018-03-02T05:08:45.495Z,-6.10
2018-03-02T05:11:17.483Z,-6.10
2018-03-02T05:13:45.189Z,-6.20
2018-03-02T05:16:17.330Z,-6.10
2018-03-02T05:18:44.921Z,-6.20
2018-03-02T05:21:16.997Z,-6.10
2018-03-02T05:23:45.224Z,-6.20
2018-03-02T05:26:26.389Z,-6.30
2018-03-02T05:31:40.336Z,-6.40
2018-03-02T05:34:13.339Z,-6.40
2018-03-02T05:36:41.980Z,-6.50
2018-03-02T05:39:25.437Z,-6.40
2018-03-02T05:50:33.685Z,-6.50
2018-03-02T05:56:28.409Z,-6.50
2018-03-02T12:10:57.219Z,2.20
2018-03-02T12:16:39.670Z,2.30
2018-03-02T12:22:02.010Z,2.20
2018-03-02T12:33:03.222Z,2.50
2018-03-02T12:41:04.605Z,2.90
2018-03-02T12:43:55.481Z,2.90
2018-03-02T12:52:26.492Z,2.90
2018-03-02T14:08:25.514Z,0.70
2018-03-02T14:10:56.209Z,0.60
2018-03-02T14:16:32.625Z,0.50
2018-03-02T14:19:03.490Z,0.60
2018-03-02T14:21:33.215Z,0.60
2018-03-02T14:24:03.870Z,0.80
2018-03-02T14:26:44.789Z,1.00
2018-03-02T14:32:25.536Z,0.90
2018-03-02T14:35:12.016Z,0.90
2018-03-02T14:37:44.964Z,0.90
2018-03-02T14:40:24.992Z,0.80
2018-03-02T14:42:59.258Z,0.80
2018-03-02T14:45:43.837Z,0.80
2018-03-02T14:48:22.588Z,0.50
2018-03-02T14:50:50.993Z,0.50
2018-03-02T14:53:28.903Z,0.70
2018-03-02T14:58:51.604Z,0.90
2018-03-02T15:01:26.850Z,0.80
2018-03-02T15:03:54.379Z,0.80
2018-03-02T15:06:34.361Z,0.70
2018-03-02T15:09:03.456Z,0.40
2018-03-02T15:11:55.579Z,0.40
2018-03-02T15:17:28.364Z,0.40
2018-03-02T15:19:55.997Z,0.40
2018-03-02T15:22:55.578Z,-0.40
2018-03-02T15:31:24.928Z,-1.10
2018-03-02T15:33:55.596Z,-1.20
2018-03-02T15:36:25.863Z,-1.10
2018-03-02T15:42:30.643Z,-1.20
2018-03-02T15:45:25.332Z,-1.20
2018-03-02T15:47:56.823Z,-1.30
2018-03-02T15:53:27.797Z,-1.50
2018-03-02T16:04:55.053Z,-1.40
2018-03-02T16:19:26.588Z,-1.50
2018-03-02T16:21:57.250Z,-1.40
2018-03-02T16:24:56.173Z,-1.60
2018-03-02T16:30:27.431Z,-1.60
2018-03-02T16:32:55.276Z,-1.70
2018-03-02T16:35:27.838Z,-1.70
2018-03-02T16:37:56.477Z,-1.70
2018-03-02T16:40:28.385Z,-1.80
2018-03-02T16:43:05.866Z,-1.70
2018-03-02T16:48:23.827Z,-1.30
2018-03-02T16:51:05.659Z,-1.30
2018-03-02T16:53:39.722Z,-1.10
2018-03-02T16:56:33.078Z,-0.70
2018-03-02T17:05:10.256Z,-0.80
2018-03-02T17:10:33.715Z,-0.60
2018-03-02T17:13:08.159Z,-0.60
2018-03-02T17:15:36.390Z,-0.60
2018-03-02T17:18:05.793Z,-0.60
2018-03-02T17:20:58.087Z,-0.80
2018-03-02T17:23:34.051Z,-0.80
2018-03-02T17:28:59.612Z,-0.80
2018-03-02T17:31:27.160Z,-0.80
2018-03-02T17:33:55.495Z,-0.90
2018-03-02T17:36:26.029Z,-0.90
2018-03-02T17:38:56.706Z,-0.80
2018-03-02T17:41:24.253Z,-0.80
2018-03-02T17:43:57.947Z,-0.80
2018-03-02T17:46:27.559Z,-0.80
2018-03-02T17:49:10.797Z,-0.90
2018-03-02T17:51:49.855Z,-0.90
2018-03-02T17:54:23.108Z,-0.90
2018-03-02T17:56:59.470Z,-1.00
2018-03-02T17:59:31.008Z,-1.00
2018-03-02T18:01:59.505Z,-0.90
2018-03-02T18:04:30.620Z,-0.90
2018-03-02T18:06:59.940Z,-1.00
2018-03-02T18:09:27.672Z,-0.90
2018-03-02T18:11:57.310Z,-0.90
2018-03-02T18:14:31.016Z,-1.10
2018-03-02T18:16:58.707Z,-1.10
2018-03-02T18:19:29.492Z,-1.00
2018-03-02T18:21:59.475Z,-1.00
2018-03-02T18:24:30.268Z,-0.90
2018-03-02T18:27:01.041Z,-0.90
2018-03-02T18:29:30.996Z,-0.90
2018-03-02T18:32:01.147Z,-1.20
2018-03-02T18:34:29.464Z,-1.10
2018-03-02T18:36:58.142Z,-1.10
2018-03-02T18:39:29.327Z,-1.10
2018-03-02T18:42:02.537Z,-1.10
2018-03-02T18:44:32.041Z,-1.10
2018-03-02T18:47:00.392Z,-1.10
2018-03-02T18:49:29.391Z,-1.10
2018-03-02T18:52:02.038Z,-1.10
2018-03-02T18:54:33.068Z,-1.00
2018-03-02T18:57:02.974Z,-1.00
2018-03-02T18:59:32.095Z,-0.90
2018-03-02T19:01:59.812Z,-0.90
2018-03-02T19:04:32.001Z,-1.00
2018-03-02T19:07:06.422Z,-1.00
2018-03-02T19:09:33.918Z,-1.00
2018-03-02T19:12:02.030Z,-1.10
2018-03-02T19:14:30.343Z,-1.10
2018-03-02T19:17:04.411Z,-1.30
2018-03-02T19:19:32.937Z,-1.30
2018-03-02T19:22:00.763Z,-1.30
2018-03-02T19:24:31.301Z,-1.30
2018-03-02T19:27:00.886Z,-1.30
2018-03-02T19:29:31.501Z,-1.30
2018-03-02T19:32:00.246Z,-1.30
2018-03-02T19:34:31.458Z,-1.40
2018-03-02T19:37:01.390Z,-1.50
2018-03-02T19:39:32.104Z,-1.40
2018-03-02T19:42:00.355Z,-1.40
2018-03-02T19:44:29.597Z,-1.50
2018-03-02T19:47:04.118Z,-1.50
2018-03-02T19:49:31.830Z,-1.50
2018-03-02T19:52:00.653Z,-1.60
2018-03-02T19:54:31.943Z,-1.70
2018-03-02T19:57:06.134Z,-1.70
2018-03-02T19:59:33.919Z,-1.60
2018-03-02T20:02:02.324Z,-1.60
2018-03-02T20:04:30.418Z,-1.70
2018-03-02T20:07:01.225Z,-1.60
2018-03-02T20:09:32.570Z,-1.60
2018-03-02T20:12:01.500Z,-1.60
2018-03-02T20:14:30.446Z,-1.60
2018-03-02T20:17:01.854Z,-1.70
2018-03-02T20:19:30.200Z,-1.70
2018-03-02T20:22:00.945Z,-1.80
2018-03-02T20:24:31.584Z,-1.80
2018-03-02T20:27:02.806Z,-1.70
2018-03-02T20:29:30.607Z,-1.70
2018-03-02T20:32:02.637Z,-1.70
2018-03-02T20:34:32.490Z,-1.70
2018-03-02T20:37:02.074Z,-1.60
2018-03-02T20:39:33.117Z,-1.80
2018-03-02T20:42:01.574Z,-1.80
2018-03-02T20:47:31.127Z,-1.80
2018-03-02T20:50:03.825Z,-1.70
2018-03-02T20:52:34.206Z,-1.70
2018-03-02T20:55:01.721Z,-1.60
2018-03-02T20:57:29.297Z,-1.60
2018-03-02T20:59:56.948Z,-1.60
2018-03-02T21:02:24.833Z,-1.60
2018-03-02T21:04:55.580Z,-1.60
2018-03-02T21:07:25.441Z,-1.60
2018-03-02T21:09:53.215Z,-1.70
2018-03-02T21:12:22.855Z,-1.70
2018-03-02T21:14:52.360Z,-1.70
2018-03-02T21:17:20.774Z,-1.70
2018-03-02T21:19:48.265Z,-1.70
2018-03-02T21:22:17.193Z,-1.60
2018-03-02T21:24:44.957Z,-1.60
2018-03-02T21:27:12.749Z,-1.70
2018-03-02T21:29:43.390Z,-1.60
2018-03-02T21:32:11.336Z,-1.60
2018-03-02T21:34:39.839Z,-1.50
2018-03-02T21:37:09.011Z,-1.50
2018-03-02T21:39:36.570Z,-1.60
2018-03-02T21:42:05.450Z,-1.50
2018-03-02T21:44:33.014Z,-1.40
2018-03-02T21:47:00.521Z,-1.40
2018-03-02T21:49:29.348Z,-1.40
2018-03-02T21:51:56.897Z,-1.40
2018-03-02T21:54:24.409Z,-1.50
2018-03-02T21:56:52.697Z,-1.50
2018-03-02T21:59:21.073Z,-1.50
2018-03-02T22:01:49.371Z,-1.50
2018-03-02T22:04:16.941Z,-1.50
2018-03-02T22:06:44.430Z,-1.50
2018-03-02T22:09:11.920Z,-1.50
2018-03-02T22:11:39.459Z,-1.50
2018-03-02T22:14:07.769Z,-1.50
2018-03-02T22:16:35.290Z,-1.50
2018-03-02T22:19:03.090Z,-1.40
2018-03-02T22:21:31.383Z,-1.30
2018-03-02T22:24:00.594Z,-1.40
2018-03-02T22:26:28.968Z,-1.40
2018-03-02T22:28:57.229Z,-1.40
2018-03-02T22:31:24.728Z,-1.40
2018-03-02T22:33:52.571Z,-1.30
2018-03-02T22:38:59.013Z,-1.40
2018-03-02T22:41:30.456Z,-1.30
2018-03-02T22:43:58.048Z,-1.40
2018-03-02T22:46:26.357Z,-1.40
2018-03-02T22:48:53.902Z,-1.50
2018-03-02T22:51:22.701Z,-1.40
2018-03-02T22:53:50.804Z,-1.30
2018-03-02T22:56:19.085Z,-1.40
2018-03-02T22:58:53.178Z,-1.40
2018-03-02T23:01:20.682Z,-1.40
2018-03-02T23:03:57.918Z,-1.30
2018-03-02T23:06:26.133Z,-1.30
2018-03-02T23:08:57.202Z,-1.40
2018-03-02T23:11:28.374Z,-1.40
2018-03-02T23:13:56.077Z,-1.50
2018-03-02T23:16:23.648Z,-1.50
2018-03-02T23:18:51.208Z,-1.40
2018-03-02T23:21:19.455Z,-1.30
2018-03-02T23:23:46.974Z,-1.30
2018-03-02T23:26:14.481Z,-1.40
2018-03-02T23:28:41.981Z,-1.50
2018-03-02T23:31:09.770Z,-1.40
2018-03-02T23:33:38.058Z,-1.50
2018-03-02T23:36:06.371Z,-1.40
2018-03-02T23:38:33.884Z,-1.40
2018-03-02T23:41:01.434Z,-1.30
2018-03-02T23:43:29.000Z,-1.30
2018-03-02T23:45:56.540Z,-1.30
2018-03-02T23:48:24.817Z,-1.30
2018-03-02T23:50:53.086Z,-1.30
2018-03-02T23:53:20.645Z,-1.40
2018-03-02T23:55:48.139Z,-1.40
2018-03-02T23:58:15.625Z,-1.50
